Time;durP1;ratioP1;P1;durP2;ratioP2;P2;SDS_P1;SDS_P2;PMS_P1;PMS_P2;Temp;Humidity;BMP_temperature;BMP_pressure;BME280_temperature;BME280_humidity;BME280_pressure;Samples;Min_cycle;Max_cycle;Signal;HPM_P1;HPM_P2
2024/04/15 00:01:40;;;;;;;;;;;;;;;6.64;52.67;99994.28;130443;1261;107802;-79
2024/04/15 00:04:43;;;;;;;;;;;;;;;6.62;52.69;100001.34;130459;1261;105354;-81
2024/04/15 00:07:49;;;;;;;;;;;;;;;6.61;52.67;99998.96;130664;1264;107612;-79
2024/04/15 00:10:53;;;;;;;;;;;;;;;6.61;52.99;99988.02;130426;1262;106683;-79
2024/04/15 00:13:57;;;;;;;;;;;;;;;6.61;53.13;99982.72;130342;1260;106309;-80
2024/04/15 00:17:03;;;;;;;;;;;;;;;6.61;53.11;99987.32;130290;1260;106656;-79
2024/04/15 00:20:08;;;;;;;;;;;;;;;6.60;52.95;99984.54;130339;1260;106841;-79
2024/04/15 00:23:11;;;;;;;;;;;;;;;6.61;53.17;99978.42;130321;1261;106493;-80
2024/04/15 00:26:15;;;;;;;;;;;;;;;6.63;53.45;99977.95;130330;1260;108427;-80
2024/04/15 00:29:19;;;;;;;;;;;;;;;6.60;53.63;99981.16;130322;1262;107910;-79
2024/04/15 00:32:23;;;;;;;;;;;;;;;6.58;53.70;99966.75;130402;1263;107340;-79
2024/04/15 00:35:26;;;;;;;;;;;;;;;6.56;53.52;99956.83;130312;1258;106463;-79
2024/04/15 00:38:30;;;;;;;;;;;;;;;6.56;53.73;99956.77;130309;1259;108488;-79
2024/04/15 00:41:34;;;;;;;;;;;;;;;6.59;53.99;99954.41;130395;1262;107737;-79
2024/04/15 00:44:38;;;;;;;;;;;;;;;6.60;53.76;99948.14;130408;1262;106446;-79
2024/04/15 00:47:41;;;;;;;;;;;;;;;6.61;54.11;99939.19;130377;1258;106327;-79
2024/04/15 00:50:46;;;;;;;;;;;;;;;6.60;54.05;99929.77;130330;1264;107947;-79
2024/04/15 00:53:51;;;;;;;;;;;;;;;6.60;54.00;99922.66;130273;1262;108592;-79
2024/04/15 00:56:55;;;;;;;;;;;;;;;6.62;54.18;99915.61;130338;1257;106547;-79
2024/04/15 00:59:59;;;;;;;;;;;;;;;6.64;54.51;99908.70;130316;1260;106503;-79
2024/04/15 01:03:04;;;;;;;;;;;;;;;6.64;54.07;99905.35;130307;1262;106676;-79
2024/04/15 01:06:08;;;;;;;;;;;;;;;6.62;54.37;99908.55;130430;1262;107721;-80
2024/04/15 01:09:12;;;;;;;;;;;;;;;6.59;54.32;99902.63;130398;1259;107088;-79
2024/04/15 01:12:15;;;;;;;;;;;;;;;6.56;54.53;99894.96;130327;1262;107017;-79
2024/04/15 01:15:19;;;;;;;;;;;;;;;6.53;54.71;99892.23;130363;1262;108579;-79
2024/04/15 01:18:23;;;;;;;;;;;;;;;6.52;54.50;99891.45;130309;1260;106417;-79
2024/04/15 01:21:27;;;;;;;;;;;;;;;6.50;54.34;99888.06;130391;1258;107562;-79
2024/04/15 01:24:30;;;;;;;;;;;;;;;6.46;54.55;99888.92;130435;1259;108638;-79
2024/04/15 01:27:34;;;;;;;;;;;;;;;6.43;54.65;99889.00;130401;1262;107723;-79
2024/04/15 01:30:38;;;;;;;;;;;;;;;6.38;54.90;99880.27;130384;1262;108727;-79
2024/04/15 01:33:42;;;;;;;;;;;;;;;6.35;54.57;99874.35;130284;1270;106711;-79
2024/04/15 01:36:45;;;;;;;;;;;;;;;6.35;54.78;99872.98;130306;1264;106829;-80
2024/04/15 01:39:49;;;;;;;;;;;;;;;6.31;54.94;99866.56;130361;1262;108351;-80
2024/04/15 01:42:53;;;;;;;;;;;;;;;6.29;54.76;99860.42;130377;1257;107746;-80
2024/04/15 01:45:57;;;;;;;;;;;;;;;6.28;55.03;99861.05;130395;1257;107167;-80
2024/04/15 01:49:00;;;;;;;;;;;;;;;6.25;54.96;99853.69;130341;1259;107342;-80
2024/04/15 01:52:05;;;;;;;;;;;;;;;6.22;55.26;99847.40;130175;1260;106711;-80
2024/04/15 01:55:09;;;;;;;;;;;;;;;6.22;55.38;99845.67;130194;1265;107780;-80
2024/04/15 01:58:12;;;;;;;;;;;;;;;6.18;55.52;99843.71;130355;1260;107863;-79
2024/04/15 02:01:17;;;;;;;;;;;;;;;6.16;55.58;99839.45;130347;1259;107681;-79
2024/04/15 02:04:21;;;;;;;;;;;;;;;6.14;55.63;99839.48;130402;1262;107160;-80
2024/04/15 02:07:25;;;;;;;;;;;;;;;6.12;55.79;99845.63;130410;1259;108519;-79
2024/04/15 02:10:29;;;;;;;;;;;;;;;6.14;55.98;99853.12;130376;1262;106981;-79
2024/04/15 02:13:33;;;;;;;;;;;;;;;6.15;56.11;99851.93;130411;1262;106372;-79
2024/04/15 02:16:37;;;;;;;;;;;;;;;6.16;56.05;99851.67;130319;1259;107752;-80
2024/04/15 02:19:40;;;;;;;;;;;;;;;6.16;56.00;99846.74;130310;1260;106781;-79
2024/04/15 02:22:44;;;;;;;;;;;;;;;6.17;56.03;99844.16;130275;1260;108669;-80
2024/04/15 02:25:48;;;;;;;;;;;;;;;6.15;56.39;99839.95;130311;1262;106940;-80
2024/04/15 02:28:52;;;;;;;;;;;;;;;6.10;56.25;99835.60;130298;1259;108093;-79
2024/04/15 02:31:55;;;;;;;;;;;;;;;6.08;56.38;99836.45;130256;1262;106824;-79
2024/04/15 02:34:59;;;;;;;;;;;;;;;6.06;56.48;99843.73;130389;1262;106922;-79
2024/04/15 02:38:03;;;;;;;;;;;;;;;6.03;56.51;99840.45;130433;1261;106328;-79
2024/04/15 02:41:07;;;;;;;;;;;;;;;6.00;56.70;99839.14;130296;1262;106698;-79
2024/04/15 02:44:10;;;;;;;;;;;;;;;5.96;56.83;99846.14;130289;1262;108459;-79
2024/04/15 02:47:14;;;;;;;;;;;;;;;5.93;57.11;99843.75;130290;1260;134476;-80
2024/04/15 02:50:21;;;;;;;;;;;;;;;5.93;57.16;99835.11;130296;1262;107117;-79
2024/04/15 02:53:25;;;;;;;;;;;;;;;5.93;57.10;99834.61;130372;1260;107281;-79
2024/04/15 02:56:28;;;;;;;;;;;;;;;5.89;57.23;99827.63;130402;1260;107518;-79
2024/04/15 02:59:32;;;;;;;;;;;;;;;5.90;57.44;99827.25;130410;1262;106946;-80
2024/04/15 03:02:36;;;;;;;;;;;;;;;5.94;57.27;99826.75;130398;1262;107521;-80
2024/04/15 03:05:41;;;;;;;;;;;;;;;5.96;57.42;99833.24;130528;1262;107578;-81
2024/04/15 03:08:45;;;;;;;;;;;;;;;6.00;57.58;99824.50;130492;1259;108496;-80
2024/04/15 03:11:50;;;;;;;;;;;;;;;6.04;57.82;99815.45;130541;1262;108605;-80
2024/04/15 03:14:54;;;;;;;;;;;;;;;6.09;57.52;99829.85;130544;1262;106614;-80
2024/04/15 03:17:57;;;;;;;;;;;;;;;6.14;57.71;99832.46;130551;1262;106711;-80
2024/04/15 03:21:07;;;;;;;;;;;;;;;6.19;57.88;99829.27;130540;1260;108705;-80
2024/04/15 03:24:11;;;;;;;;;;;;;;;6.25;58.09;99820.11;130329;1262;107680;-81
2024/04/15 03:27:15;;;;;;;;;;;;;;;6.31;57.73;99816.11;130384;1262;107795;-80
2024/04/15 03:30:18;;;;;;;;;;;;;;;6.35;57.99;99816.64;130577;1262;107770;-79
2024/04/15 03:33:22;;;;;;;;;;;;;;;6.39;58.22;99810.82;130368;1262;106755;-81
2024/04/15 03:36:26;;;;;;;;;;;;;;;6.42;58.32;99797.94;130407;1271;108557;-80
2024/04/15 03:39:30;;;;;;;;;;;;;;;6.42;58.29;99788.92;130412;1259;108487;-80
2024/04/15 03:42:34;;;;;;;;;;;;;;;6.40;58.48;99793.75;130344;1261;107676;-80
2024/04/15 03:45:37;;;;;;;;;;;;;;;6.43;58.47;99796.10;130385;1262;108557;-80
2024/04/15 03:48:41;;;;;;;;;;;;;;;6.48;58.83;99801.85;130289;1258;107752;-80
2024/04/15 03:51:45;;;;;;;;;;;;;;;6.51;58.81;99808.61;130368;1261;107807;-80
2024/04/15 03:54:49;;;;;;;;;;;;;;;6.56;59.14;99811.87;130365;1262;107905;-81
2024/04/15 03:57:52;;;;;;;;;;;;;;;6.61;59.08;99807.38;130326;1262;107759;-80
2024/04/15 04:01:01;;;;;;;;;;;;;;;6.64;59.05;99802.84;130495;1259;107549;-80
2024/04/15 04:04:06;;;;;;;;;;;;;;;6.70;59.37;99804.65;130241;1259;106821;-80
2024/04/15 04:07:10;;;;;;;;;;;;;;;6.72;59.33;99801.25;130531;1262;108472;-79
2024/04/15 04:10:16;;;;;;;;;;;;;;;6.76;59.60;99794.73;131311;1260;107173;-82
2024/04/15 04:13:20;;;;;;;;;;;;;;;6.78;59.53;99791.37;131615;1261;106515;-80
2024/04/15 04:16:23;;;;;;;;;;;;;;;6.75;59.83;99789.36;130557;1262;108597;-84
2024/04/15 04:19:27;;;;;;;;;;;;;;;6.70;59.77;99779.20;130738;1262;106662;-89
2024/04/15 04:22:31;;;;;;;;;;;;;;;6.79;60.36;99770.73;130772;1260;107107;-90
2024/04/15 04:25:34;;;;;;;;;;;;;;;6.88;60.61;99766.35;130894;1260;107640;-89
2024/04/15 04:28:38;;;;;;;;;;;;;;;6.97;60.24;99755.54;130742;1257;109193;-92
2024/04/15 04:31:42;;;;;;;;;;;;;;;7.01;60.74;99760.75;130714;1262;108749;-87
2024/04/15 04:34:46;;;;;;;;;;;;;;;7.05;61.07;99757.55;130713;1259;107905;-91
2024/04/15 04:37:50;;;;;;;;;;;;;;;7.10;60.76;99758.34;130743;1260;107443;-89
2024/04/15 04:40:57;;;;;;;;;;;;;;;7.12;60.84;99751.05;130679;1260;108731;-89
2024/04/15 04:44:00;;;;;;;;;;;;;;;7.19;62.61;99760.92;130683;1262;107501;-87
2024/04/15 04:47:04;;;;;;;;;;;;;;;7.07;61.84;99772.08;130692;1262;108691;-80
2024/04/15 04:50:08;;;;;;;;;;;;;;;7.09;62.76;99774.33;130519;1262;108689;-81
2024/04/15 04:53:13;;;;;;;;;;;;;;;7.16;62.48;99772.01;130598;1262;107994;-81
2024/04/15 04:56:16;;;;;;;;;;;;;;;7.28;62.57;99780.88;130662;1262;107511;-80
2024/04/15 04:59:22;;;;;;;;;;;;;;;7.38;62.60;99778.36;130507;1265;106583;-81
2024/04/15 05:02:26;;;;;;;;;;;;;;;7.46;62.76;99774.23;130748;1262;107844;-82
2024/04/15 05:05:33;;;;;;;;;;;;;;;7.50;64.54;99778.50;130739;1265;106806;-81
2024/04/15 05:08:37;;;;;;;;;;;;;;;7.46;63.63;99770.49;130719;1262;106877;-82
2024/04/15 05:11:41;;;;;;;;;;;;;;;7.58;63.59;99756.86;130838;1259;107779;-82
2024/04/15 05:14:47;;;;;;;;;;;;;;;7.71;63.66;99757.38;130670;1262;108404;-81
2024/04/15 05:17:51;;;;;;;;;;;;;;;7.88;63.74;99755.39;130563;1262;106404;-82
2024/04/15 05:20:55;;;;;;;;;;;;;;;8.07;63.83;99751.26;130544;1260;108049;-81
2024/04/15 05:23:58;;;;;;;;;;;;;;;8.24;64.07;99742.00;130606;1259;106590;-81
2024/04/15 05:27:02;;;;;;;;;;;;;;;8.41;64.04;99737.87;130640;1260;106308;-80
2024/04/15 05:30:07;;;;;;;;;;;;;;;8.57;63.85;99749.98;130628;1262;106806;-81
2024/04/15 05:33:11;;;;;;;;;;;;;;;8.70;63.96;99755.38;130461;1266;106852;-82
2024/04/15 05:36:15;;;;;;;;;;;;;;;8.82;64.12;99751.33;130600;1262;108702;-82
2024/04/15 05:39:19;;;;;;;;;;;;;;;8.92;63.99;99750.36;130796;1257;106586;-81
2024/04/15 05:42:22;;;;;;;;;;;;;;;8.98;64.14;99752.75;130580;1260;108480;-81
2024/04/15 05:45:26;;;;;;;;;;;;;;;9.01;64.27;99750.84;130619;1262;107697;-81
2024/04/15 05:48:30;;;;;;;;;;;;;;;9.10;64.11;99746.11;130577;1262;107704;-82
2024/04/15 05:51:39;;;;;;;;;;;;;;;9.16;64.47;99747.17;130872;1270;106681;-93
2024/04/15 05:54:46;;;;;;;;;;;;;;;9.20;64.42;99742.75;131464;1256;107771;-91
2024/04/15 05:57:50;;;;;;;;;;;;;;;9.24;64.65;99750.95;131141;1260;106427;-89
2024/04/15 06:00:53;;;;;;;;;;;;;;;9.28;64.56;99756.16;130864;1263;107538;-87
2024/04/15 06:03:57;;;;;;;;;;;;;;;9.27;64.78;99760.49;130605;1260;108713;-88
2024/04/15 06:07:01;;;;;;;;;;;;;;;9.33;64.86;99768.38;130677;1263;106693;-88
2024/04/15 06:10:05;;;;;;;;;;;;;;;9.39;64.88;99773.21;130543;1262;107074;-90
2024/04/15 06:13:09;;;;;;;;;;;;;;;9.44;64.78;99777.58;130607;1262;107949;-90
2024/04/15 06:16:13;;;;;;;;;;;;;;;9.49;65.13;99791.80;130409;1263;108645;-87
2024/04/15 06:19:16;;;;;;;;;;;;;;;9.48;65.04;99792.63;130461;1261;107814;-88
2024/04/15 06:22:21;;;;;;;;;;;;;;;9.43;64.52;99791.11;130448;1258;106643;-89
2024/04/15 06:25:25;;;;;;;;;;;;;;;9.41;64.53;99783.91;130707;1261;107526;-88
2024/04/15 06:28:29;;;;;;;;;;;;;;;9.41;64.60;99783.55;130410;1263;108336;-86
2024/04/15 06:31:32;;;;;;;;;;;;;;;9.45;64.65;99772.69;130284;1273;106612;-83
2024/04/15 06:34:36;;;;;;;;;;;;;;;9.47;64.60;99758.15;130303;1263;108734;-85
2024/04/15 06:37:40;;;;;;;;;;;;;;;9.48;64.67;99742.54;130563;1263;109314;-85
2024/04/15 06:40:43;;;;;;;;;;;;;;;9.51;65.02;99744.02;130620;1260;108714;-77
2024/04/15 06:43:47;;;;;;;;;;;;;;;9.52;64.92;99736.58;130450;1262;106179;-77
2024/04/15 06:46:51;;;;;;;;;;;;;;;9.51;64.91;99747.02;130350;1270;108682;-78
2024/04/15 06:49:55;;;;;;;;;;;;;;;9.52;64.91;99740.92;130032;1262;108690;-77
2024/04/15 06:53:03;;;;;;;;;;;;;;;9.51;64.98;99737.77;130238;1264;106869;-77
2024/04/15 06:56:08;;;;;;;;;;;;;;;9.52;64.90;99740.86;130398;1258;106550;-82
2024/04/15 06:59:12;;;;;;;;;;;;;;;9.51;64.98;99758.54;130226;1273;108627;-82
2024/04/15 07:02:21;;;;;;;;;;;;;;;9.46;65.28;99757.61;130173;1266;107270;-85
2024/04/15 07:05:25;;;;;;;;;;;;;;;9.24;65.45;99753.86;130466;1263;107640;-82
2024/04/15 07:08:29;;;;;;;;;;;;;;;9.03;66.16;99760.06;130389;1262;108405;-82
2024/04/15 07:11:35;;;;;;;;;;;;;;;8.84;66.49;99742.59;130614;1260;108723;-86
2024/04/15 07:14:39;;;;;;;;;;;;;;;8.73;66.89;99728.90;130514;1262;106571;-88
2024/04/15 07:17:43;;;;;;;;;;;;;;;8.61;67.93;99722.70;130579;1261;106753;-83
2024/04/15 07:20:48;;;;;;;;;;;;;;;8.47;68.42;99721.88;130388;1268;106255;-81
2024/04/15 07:23:52;;;;;;;;;;;;;;;8.37;68.86;99715.67;130380;1272;109543;-80
2024/04/15 07:26:56;;;;;;;;;;;;;;;8.36;69.56;99727.59;130436;1269;108044;-82
2024/04/15 07:29:59;;;;;;;;;;;;;;;8.41;69.07;99736.40;130396;1270;106601;-82
2024/04/15 07:33:03;;;;;;;;;;;;;;;8.50;68.76;99732.20;130439;1263;106392;-82
2024/04/15 07:36:08;;;;;;;;;;;;;;;8.65;68.52;99723.98;130532;1257;106437;-82
2024/04/15 07:39:12;;;;;;;;;;;;;;;8.77;68.42;99728.30;130670;1270;107785;-83
2024/04/15 07:42:15;;;;;;;;;;;;;;;8.93;68.54;99720.30;130406;1269;109355;-83
2024/04/15 07:45:19;;;;;;;;;;;;;;;9.03;68.56;99722.23;130429;1263;107345;-82
2024/04/15 07:48:23;;;;;;;;;;;;;;;9.17;68.42;99731.12;130442;1262;106835;-82
2024/04/15 07:51:27;;;;;;;;;;;;;;;9.37;68.29;99700.91;130363;1262;107501;-83
2024/04/15 07:54:30;;;;;;;;;;;;;;;9.52;68.07;99700.38;130439;1263;108725;-82
2024/04/15 07:57:34;;;;;;;;;;;;;;;9.66;68.44;99700.34;130507;1258;107041;-83
2024/04/15 08:00:38;;;;;;;;;;;;;;;9.79;68.44;99711.94;130461;1271;107266;-82
2024/04/15 08:03:42;;;;;;;;;;;;;;;9.89;68.40;99711.44;130463;1257;108723;-83
2024/04/15 08:06:46;;;;;;;;;;;;;;;9.98;68.48;99704.80;130404;1264;106525;-83
2024/04/15 08:09:49;;;;;;;;;;;;;;;10.08;68.11;99702.35;130372;1266;108679;-81
2024/04/15 08:12:53;;;;;;;;;;;;;;;10.14;68.18;99697.58;130388;1261;109292;-82
2024/04/15 08:15:57;;;;;;;;;;;;;;;10.17;68.38;99691.24;130463;1263;108114;-83
2024/04/15 08:19:01;;;;;;;;;;;;;;;10.21;68.79;99683.19;130465;1269;108564;-85
2024/04/15 08:22:07;;;;;;;;;;;;;;;10.35;68.94;99677.80;130322;1257;106997;-85
2024/04/15 08:25:11;;;;;;;;;;;;;;;10.54;68.53;99664.73;130522;1263;108791;-85
2024/04/15 08:28:14;;;;;;;;;;;;;;;10.69;68.88;99670.39;130505;1263;109543;-85
2024/04/15 08:31:18;;;;;;;;;;;;;;;10.80;68.72;99675.75;130364;1258;107698;-85
2024/04/15 08:34:22;;;;;;;;;;;;;;;10.93;68.95;99678.27;130473;1257;107573;-86
2024/04/15 08:37:26;;;;;;;;;;;;;;;11.02;68.97;99684.52;130719;1261;106625;-86
2024/04/15 08:40:29;;;;;;;;;;;;;;;11.12;68.84;99681.25;130332;1260;106379;-83
2024/04/15 08:43:35;;;;;;;;;;;;;;;11.24;68.73;99680.16;130566;1263;108046;-86
2024/04/15 08:46:43;;;;;;;;;;;;;;;11.26;68.79;99671.91;130369;1261;108808;-87
2024/04/15 08:49:46;;;;;;;;;;;;;;;11.22;68.74;99669.85;130729;1269;106856;-83
2024/04/15 08:52:51;;;;;;;;;;;;;;;11.17;68.72;99671.77;130406;1263;107662;-83
2024/04/15 08:55:55;;;;;;;;;;;;;;;11.20;69.02;99662.58;130578;1262;107749;-84
2024/04/15 08:58:59;;;;;;;;;;;;;;;11.26;68.94;99654.98;130361;1263;106719;-83
2024/04/15 09:02:06;;;;;;;;;;;;;;;11.39;69.19;99647.16;130357;1263;106981;-81
2024/04/15 09:05:10;;;;;;;;;;;;;;;11.54;69.05;99649.13;130499;1263;107738;-81
2024/04/15 09:08:14;;;;;;;;;;;;;;;11.63;68.89;99653.86;130493;1271;106617;-81
2024/04/15 09:11:18;;;;;;;;;;;;;;;11.79;69.15;99652.23;130467;1273;107796;-84
2024/04/15 09:14:21;;;;;;;;;;;;;;;12.00;68.74;99650.70;130453;1261;107816;-82
2024/04/15 09:17:25;;;;;;;;;;;;;;;12.19;68.55;99644.27;130514;1261;108539;-83
2024/04/15 09:20:29;;;;;;;;;;;;;;;12.37;68.45;99644.84;131062;1258;107618;-83
2024/04/15 09:23:33;;;;;;;;;;;;;;;12.56;68.45;99641.91;130408;1263;107769;-83
2024/04/15 09:26:37;;;;;;;;;;;;;;;12.78;68.51;99638.60;130521;1271;108797;-84
2024/04/15 09:29:41;;;;;;;;;;;;;;;13.03;68.55;99632.09;130548;1262;107678;-82
2024/04/15 09:32:45;;;;;;;;;;;;;;;13.23;67.92;99615.14;130404;1273;107535;-84
2024/04/15 09:35:49;;;;;;;;;;;;;;;13.33;67.58;99613.05;130459;1262;107267;-83
2024/04/15 09:38:55;;;;;;;;;;;;;;;13.42;67.54;99616.11;130503;1263;107718;-83
2024/04/15 09:42:00;;;;;;;;;;;;;;;13.58;67.70;99619.44;130370;1263;108647;-83
2024/04/15 09:45:09;;;;;;;;;;;;;;;13.71;67.52;99622.92;130319;1263;107987;-82
2024/04/15 09:48:15;;;;;;;;;;;;;;;13.84;67.28;99622.54;130557;1257;108615;-83
2024/04/15 09:51:21;;;;;;;;;;;;;;;13.91;66.92;99611.89;130433;1262;106382;-84
2024/04/15 09:54:30;;;;;;;;;;;;;;;14.05;66.75;99615.73;130390;1262;108465;-83
2024/04/15 09:57:35;;;;;;;;;;;;;;;14.14;66.26;99612.02;130399;1264;108436;-84
2024/04/15 10:00:41;;;;;;;;;;;;;;;14.32;66.25;99614.16;130332;1264;106792;-84
2024/04/15 10:03:47;;;;;;;;;;;;;;;14.46;65.68;99609.16;130248;1267;108416;-83
2024/04/15 10:06:52;;;;;;;;;;;;;;;14.61;65.04;99594.92;130347;1260;107431;-83
2024/04/15 10:09:58;;;;;;;;;;;;;;;14.74;65.13;99595.52;130300;1263;107185;-83
2024/04/15 10:13:03;;;;;;;;;;;;;;;14.77;63.97;99587.69;130216;1269;107496;-84
2024/04/15 10:16:17;;;;;;;;;;;;;;;14.66;64.17;99581.63;130276;1263;108598;-82
2024/04/15 10:19:24;;;;;;;;;;;;;;;14.64;64.39;99577.93;130465;1257;108664;-84
2024/04/15 10:22:28;;;;;;;;;;;;;;;14.73;63.52;99584.98;130456;1268;108519;-84
2024/04/15 10:25:32;;;;;;;;;;;;;;;14.73;63.15;99582.79;130541;1267;106627;-85
2024/04/15 10:28:36;;;;;;;;;;;;;;;14.70;62.80;99578.02;130332;1257;108494;-85
2024/04/15 10:31:41;;;;;;;;;;;;;;;14.54;61.99;99572.11;130337;1262;106294;-83
2024/04/15 10:34:49;;;;;;;;;;;;;;;14.47;62.35;99573.16;130354;1262;106650;-82
2024/04/15 10:37:53;;;;;;;;;;;;;;;14.42;61.24;99568.30;130369;1261;107742;-83
2024/04/15 10:40:57;;;;;;;;;;;;;;;14.22;61.26;99565.48;130349;1264;108454;-83
2024/04/15 10:44:01;;;;;;;;;;;;;;;13.96;62.06;99565.88;130428;1263;105994;-83
2024/04/15 10:47:06;;;;;;;;;;;;;;;13.95;61.89;99567.02;130410;1257;108394;-85
2024/04/15 10:50:10;;;;;;;;;;;;;;;13.87;61.01;99560.88;130517;1261;108759;-82
2024/04/15 10:53:15;;;;;;;;;;;;;;;13.79;61.19;99555.85;130506;1261;106534;-82
2024/04/15 10:56:19;;;;;;;;;;;;;;;13.68;60.60;99550.02;130473;1263;107286;-82
2024/04/15 10:59:22;;;;;;;;;;;;;;;13.60;60.89;99548.89;130545;1270;106719;-82
2024/04/15 11:02:26;;;;;;;;;;;;;;;13.42;59.00;99551.92;130515;1260;108590;-81
2024/04/15 11:05:30;;;;;;;;;;;;;;;13.36;60.41;99542.90;130654;1261;108734;-81
2024/04/15 11:08:34;;;;;;;;;;;;;;;13.58;60.75;99536.02;130521;1257;107832;-81
2024/04/15 11:11:38;;;;;;;;;;;;;;;13.82;60.38;99533.85;130483;1264;107757;-83
2024/04/15 11:14:41;;;;;;;;;;;;;;;13.93;60.23;99530.85;130406;1263;107068;-81
2024/04/15 11:17:48;;;;;;;;;;;;;;;14.07;60.18;99523.10;130373;1260;106631;-81
2024/04/15 11:20:59;;;;;;;;;;;;;;;14.08;58.62;99520.32;130273;1260;107885;-82
2024/04/15 11:24:09;;;;;;;;;;;;;;;14.12;60.30;99517.82;130376;1261;107784;-81
2024/04/15 11:27:13;;;;;;;;;;;;;;;14.28;59.83;99507.73;130293;1264;108483;-81
2024/04/15 11:30:20;;;;;;;;;;;;;;;14.44;59.82;99502.20;130428;1260;106924;-81
2024/04/15 11:33:28;;;;;;;;;;;;;;;14.50;59.63;99502.75;130463;1260;106367;-82
2024/04/15 11:36:31;;;;;;;;;;;;;;;14.48;59.34;99500.39;130439;1257;108142;-84
2024/04/15 11:39:35;;;;;;;;;;;;;;;14.49;59.29;99497.59;130444;1258;108791;-81
2024/04/15 11:42:41;;;;;;;;;;;;;;;14.44;59.27;99496.86;130424;1264;107768;-81
2024/04/15 11:45:52;;;;;;;;;;;;;;;14.38;57.99;99494.59;130400;1261;107505;-81
2024/04/15 11:48:57;;;;;;;;;;;;;;;14.27;58.22;99491.46;130445;1264;108720;-81
2024/04/15 11:52:01;;;;;;;;;;;;;;;14.28;58.34;99482.80;130496;1272;107863;-81
2024/04/15 11:55:13;;;;;;;;;;;;;;;14.33;57.71;99472.59;130394;1263;107640;-81
2024/04/15 11:58:17;;;;;;;;;;;;;;;14.26;55.27;99464.59;130330;1263;107757;-81
2024/04/15 12:01:20;;;;;;;;;;;;;;;14.00;56.44;99470.55;130315;1264;107593;-81
2024/04/15 12:04:25;;;;;;;;;;;;;;;14.09;57.23;99469.13;130293;1261;107920;-82
2024/04/15 12:07:28;;;;;;;;;;;;;;;14.33;57.16;99472.06;130462;1264;107813;-81
2024/04/15 12:10:35;;;;;;;;;;;;;;;14.49;57.17;99467.33;130451;1263;106425;-82
2024/04/15 12:13:38;;;;;;;;;;;;;;;14.70;57.38;99447.85;130422;1263;106732;-82
2024/04/15 12:16:42;;;;;;;;;;;;;;;14.97;57.01;99439.15;130411;1262;106940;-82
2024/04/15 12:19:46;;;;;;;;;;;;;;;15.19;57.01;99436.60;130474;1263;107005;-82
2024/04/15 12:22:51;;;;;;;;;;;;;;;15.33;56.41;99438.48;130594;1264;108551;-81
2024/04/15 12:25:55;;;;;;;;;;;;;;;15.43;56.79;99428.25;130589;1263;107302;-82
2024/04/15 12:28:58;;;;;;;;;;;;;;;15.52;56.42;99432.06;131077;1257;106799;-81
2024/04/15 12:32:02;;;;;;;;;;;;;;;15.48;56.74;99440.33;130397;1264;108709;-81
2024/04/15 12:35:06;;;;;;;;;;;;;;;15.43;56.86;99430.37;131139;1262;106909;-83
2024/04/15 12:38:10;;;;;;;;;;;;;;;15.39;57.02;99417.86;131835;1257;106995;-82
2024/04/15 12:41:14;;;;;;;;;;;;;;;15.32;57.02;99404.09;130672;1263;106871;-81
2024/04/15 12:44:19;;;;;;;;;;;;;;;15.28;57.19;99399.04;130599;1258;106745;-81
2024/04/15 12:47:22;;;;;;;;;;;;;;;15.24;57.05;99395.98;130558;1263;106617;-81
2024/04/15 12:50:26;;;;;;;;;;;;;;;15.24;57.23;99400.45;130311;1262;107389;-81
2024/04/15 12:53:34;;;;;;;;;;;;;;;15.22;57.08;99390.21;131896;1257;107027;-83
2024/04/15 12:56:42;;;;;;;;;;;;;;;15.18;57.24;99391.95;130435;1260;107752;-84
2024/04/15 12:59:50;;;;;;;;;;;;;;;15.21;57.48;99384.77;130266;1264;109465;-84
2024/04/15 13:02:56;;;;;;;;;;;;;;;15.30;57.44;99379.61;130940;1259;106297;-86
2024/04/15 13:06:00;;;;;;;;;;;;;;;15.27;56.94;99377.25;131214;1262;107539;-84
2024/04/15 13:09:04;;;;;;;;;;;;;;;15.22;57.15;99377.32;131136;1257;108785;-84
2024/04/15 13:12:10;;;;;;;;;;;;;;;15.18;57.15;99374.88;131247;1257;108560;-85
2024/04/15 13:15:29;;;;;;;;;;;;;;;15.26;57.14;99369.02;131089;1257;107222;-84
2024/04/15 13:18:37;;;;;;;;;;;;;;;15.23;57.17;99368.15;130815;1261;107655;-84
2024/04/15 13:21:41;;;;;;;;;;;;;;;15.24;57.11;99360.91;131552;1258;108834;-86
2024/04/15 13:24:46;;;;;;;;;;;;;;;15.22;56.76;99351.52;131597;1257;108305;-83
2024/04/15 13:27:49;;;;;;;;;;;;;;;15.25;56.58;99347.30;130647;1257;108598;-84
2024/04/15 13:30:53;;;;;;;;;;;;;;;15.29;56.89;99344.29;130588;1262;108680;-83
2024/04/15 13:33:57;;;;;;;;;;;;;;;15.35;56.86;99334.55;130508;1259;106792;-81
2024/04/15 13:37:01;;;;;;;;;;;;;;;15.38;56.80;99329.98;130715;1262;108342;-80
2024/04/15 13:40:06;;;;;;;;;;;;;;;15.37;56.56;99331.52;130756;1259;105589;-80
2024/04/15 13:43:09;;;;;;;;;;;;;;;15.33;56.50;99328.86;130687;1257;107872;-84
2024/04/15 13:46:13;;;;;;;;;;;;;;;15.31;56.36;99321.88;130451;1263;108731;-80
2024/04/15 13:49:19;;;;;;;;;;;;;;;15.30;56.10;99316.38;130477;1262;108618;-83
2024/04/15 13:52:23;;;;;;;;;;;;;;;15.18;55.95;99319.64;130774;1261;108525;-83
2024/04/15 13:55:27;;;;;;;;;;;;;;;15.10;56.24;99320.96;131194;1259;106889;-84
2024/04/15 13:58:31;;;;;;;;;;;;;;;15.06;55.88;99316.50;130823;1257;108474;-83
2024/04/15 14:01:35;;;;;;;;;;;;;;;15.07;55.92;99315.48;130865;1262;107149;-83
2024/04/15 14:04:38;;;;;;;;;;;;;;;15.11;55.81;99313.02;130558;1257;107152;-83
2024/04/15 14:07:42;;;;;;;;;;;;;;;15.19;55.82;99310.84;130478;1262;106575;-83
2024/04/15 14:10:46;;;;;;;;;;;;;;;15.25;55.55;99311.96;130460;1262;108648;-83
2024/04/15 14:13:49;;;;;;;;;;;;;;;15.28;55.19;99314.07;130452;1262;106773;-83
2024/04/15 14:16:53;;;;;;;;;;;;;;;15.22;55.39;99314.93;130438;1271;106706;-83
2024/04/15 14:23:17;;;;;;;;;;;;;;;15.06;55.19;99302.58;130400;1263;108861;-81
2024/04/15 14:26:21;;;;;;;;;;;;;;;14.99;55.14;99297.39;130670;1264;108530;-83
2024/04/15 14:29:25;;;;;;;;;;;;;;;14.93;55.13;99298.17;130562;1260;106205;-83
2024/04/15 14:32:28;;;;;;;;;;;;;;;14.88;55.41;99295.11;130317;1274;107379;-83
2024/04/15 14:35:32;;;;;;;;;;;;;;;14.84;55.31;99291.64;130305;1273;107855;-83
2024/04/15 14:38:38;;;;;;;;;;;;;;;14.79;55.11;99285.59;130296;1264;107244;-83
2024/04/15 14:41:42;;;;;;;;;;;;;;;14.73;55.08;99275.79;130343;1262;106706;-83
2024/04/15 14:44:45;;;;;;;;;;;;;;;14.66;55.03;99271.16;130483;1261;107959;-83
2024/04/15 14:47:49;;;;;;;;;;;;;;;14.62;55.31;99272.14;130476;1257;125330;-83
2024/04/15 14:50:54;;;;;;;;;;;;;;;14.57;55.34;99266.33;130556;1261;107756;-83
2024/04/15 14:53:58;;;;;;;;;;;;;;;14.49;55.60;99261.71;130452;1261;107990;-82
2024/04/15 14:57:02;;;;;;;;;;;;;;;14.41;55.91;99265.83;130494;1260;106444;-82
2024/04/15 15:00:10;;;;;;;;;;;;;;;14.36;55.88;99261.67;130517;1261;106770;-84
2024/04/15 15:03:14;;;;;;;;;;;;;;;14.35;55.56;99253.42;130512;1260;107549;-82
2024/04/15 15:06:18;;;;;;;;;;;;;;;14.32;55.78;99254.73;130462;1260;108791;-83
2024/04/15 15:09:22;;;;;;;;;;;;;;;14.28;55.47;99258.76;130451;1261;107656;-82
2024/04/15 15:12:26;;;;;;;;;;;;;;;14.26;55.63;99253.30;130316;1264;108749;-83
2024/04/15 15:15:30;;;;;;;;;;;;;;;14.24;55.56;99253.39;130365;1259;108739;-82
2024/04/15 15:18:34;;;;;;;;;;;;;;;14.18;55.57;99253.98;130308;1263;107913;-82
2024/04/15 15:21:38;;;;;;;;;;;;;;;14.13;55.55;99254.87;130284;1264;108533;-83
2024/04/15 15:24:41;;;;;;;;;;;;;;;14.06;55.43;99253.81;130355;1259;107721;-82
2024/04/15 15:27:45;;;;;;;;;;;;;;;13.97;55.48;99249.61;130285;1263;106597;-82
2024/04/15 15:30:49;;;;;;;;;;;;;;;13.88;55.63;99238.27;130548;1256;107808;-84
2024/04/15 15:33:53;;;;;;;;;;;;;;;13.83;55.93;99220.38;130516;1262;107676;-84
2024/04/15 15:36:57;;;;;;;;;;;;;;;13.79;55.97;99209.83;130292;1262;108379;-81
2024/04/15 15:40:05;;;;;;;;;;;;;;;13.75;55.83;99198.61;130454;1262;107004;-82
2024/04/15 15:43:09;;;;;;;;;;;;;;;13.68;55.86;99194.54;130457;1257;106761;-83
2024/04/15 15:46:12;;;;;;;;;;;;;;;13.63;55.80;99179.13;130338;1262;108802;-81